createdAt,value
2018-08-23T00:00:03.536Z,20.70
2018-08-23T00:02:32.917Z,25.47
2018-08-23T00:05:00.132Z,25.07
2018-08-23T00:07:27.285Z,24.27
2018-08-23T00:09:54.404Z,22.17
2018-08-23T00:12:26.993Z,23.27
2018-08-23T00:14:54.170Z,30.53
2018-08-23T00:17:21.268Z,22.57
2018-08-23T00:19:48.428Z,21.10
2018-08-23T00:22:21.282Z,20.73
2018-08-23T00:24:48.387Z,19.93
2018-08-23T00:27:20.098Z,21.73
2018-08-23T00:29:47.241Z,23.27
2018-08-23T00:32:21.164Z,22.90
2018-08-23T00:34:48.294Z,27.60
2018-08-23T00:37:15.420Z,22.53
2018-08-23T00:39:42.585Z,35.50
2018-08-23T00:42:11.195Z,31.07
2018-08-23T00:44:57.264Z,30.13
2018-08-23T00:47:30.381Z,37.23
2018-08-23T00:49:57.549Z,49.53
2018-08-23T00:52:44.561Z,38.80
2018-08-23T00:55:31.200Z,44.07
2018-08-23T00:57:58.492Z,46.03
2018-08-23T01:00:27.578Z,65.43
2018-08-23T01:03:00.600Z,68.00
2018-08-23T01:05:33.488Z,71.00
2018-08-23T01:08:00.623Z,56.00
2018-08-23T01:10:27.729Z,81.37
2018-08-23T01:12:57.072Z,60.00
2018-08-23T01:15:24.241Z,56.17
2018-08-23T01:18:04.305Z,72.67
2018-08-23T01:20:31.515Z,68.00
2018-08-23T01:23:00.632Z,65.70
2018-08-23T01:25:30.947Z,58.67
2018-08-23T01:27:58.065Z,57.17
2018-08-23T01:30:25.200Z,68.97
2018-08-23T01:32:52.355Z,74.03
2018-08-23T01:35:19.527Z,54.37
2018-08-23T01:37:46.689Z,60.27
2018-08-23T01:40:13.840Z,71.70
2018-08-23T01:42:41.628Z,53.53
2018-08-23T01:45:10.201Z,57.93
2018-08-23T01:48:11.000Z,53.63
2018-08-23T01:50:38.226Z,51.27
2018-08-23T01:53:05.460Z,49.13
2018-08-23T01:55:32.608Z,49.40
2018-08-23T01:57:59.812Z,50.03
2018-08-23T02:00:29.066Z,39.27
2018-08-23T02:02:56.186Z,36.50
2018-08-23T02:05:23.413Z,36.33
2018-08-23T02:07:50.591Z,39.87
2018-08-23T02:10:17.773Z,35.40
2018-08-23T02:12:52.916Z,39.57
2018-08-23T02:15:20.294Z,33.97
2018-08-23T02:17:52.823Z,32.97
2018-08-23T02:20:20.555Z,27.67
2018-08-23T02:22:47.724Z,34.67
2018-08-23T02:25:14.863Z,31.50
2018-08-23T02:27:56.668Z,34.23
2018-08-23T02:30:38.618Z,33.40
2018-08-23T02:33:05.789Z,25.83
2018-08-23T02:35:32.943Z,37.00
2018-08-23T02:38:00.127Z,36.00
2018-08-23T02:40:27.249Z,35.47
2018-08-23T02:42:54.384Z,47.23
2018-08-23T02:45:21.611Z,35.13
2018-08-23T02:47:48.748Z,41.53
2018-08-23T02:50:15.921Z,40.10
2018-08-23T02:52:43.072Z,47.50
2018-08-23T02:55:10.193Z,45.70
2018-08-23T02:57:41.908Z,51.20
2018-08-23T03:00:09.055Z,51.37
2018-08-23T03:02:36.300Z,50.23
2018-08-23T03:05:04.491Z,70.83
2018-08-23T03:07:31.648Z,68.53
2018-08-23T03:09:58.820Z,57.83
2018-08-23T03:12:25.966Z,59.67
2018-08-23T03:14:53.105Z,66.73
2018-08-23T03:17:22.500Z,60.10
2018-08-23T03:20:25.413Z,52.67
2018-08-23T03:22:54.746Z,54.93
2018-08-23T03:25:23.042Z,52.17
2018-08-23T03:27:51.836Z,50.47
2018-08-23T03:30:19.508Z,34.87
2018-08-23T03:32:46.631Z,36.77
2018-08-23T03:35:13.756Z,42.83
2018-08-23T03:37:40.905Z,36.40
2018-08-23T03:40:09.017Z,32.40
2018-08-23T03:42:36.140Z,36.30
2018-08-23T03:45:04.206Z,37.40
2018-08-23T03:47:38.494Z,37.57
2018-08-23T03:50:06.549Z,36.27
2018-08-23T03:52:37.674Z,35.10
2018-08-23T03:55:06.306Z,43.20
2018-08-23T03:57:39.062Z,43.30
2018-08-23T04:00:06.207Z,43.47
2018-08-23T04:02:33.397Z,48.60
2018-08-23T04:05:10.409Z,64.40
2018-08-23T04:07:38.613Z,73.13
2018-08-23T04:10:05.813Z,122.93
2018-08-23T04:12:34.769Z,150.63
2018-08-23T04:15:14.417Z,160.93
2018-08-23T04:17:41.528Z,139.37
2018-08-23T04:20:08.692Z,126.60
2018-08-23T04:22:35.821Z,99.60
2018-08-23T04:25:03.414Z,105.63
2018-08-23T04:27:30.573Z,103.20
2018-08-23T04:29:57.717Z,104.67
2018-08-23T04:32:30.576Z,94.13
2018-08-23T04:34:59.211Z,79.57
2018-08-23T04:37:26.808Z,76.60
2018-08-23T04:39:59.444Z,70.17
2018-08-23T04:42:26.616Z,67.60
2018-08-23T04:44:53.732Z,56.63
2018-08-23T04:47:21.620Z,65.00
2018-08-23T04:49:48.748Z,54.63
2018-08-23T04:52:15.921Z,47.00
2018-08-23T04:54:43.066Z,45.67
2018-08-23T04:57:10.349Z,45.23
2018-08-23T04:59:37.497Z,39.10
2018-08-23T05:02:04.845Z,35.10
2018-08-23T05:04:32.032Z,37.70
2018-08-23T05:06:59.169Z,28.87
2018-08-23T05:09:26.292Z,30.50
2018-08-23T05:11:53.476Z,30.83
2018-08-23T05:14:20.616Z,26.97
2018-08-23T05:16:47.733Z,29.30
2018-08-23T05:19:14.958Z,26.37
2018-08-23T05:21:42.089Z,24.60
2018-08-23T05:24:11.651Z,29.70
2018-08-23T05:26:38.891Z,28.57
2018-08-23T05:29:07.355Z,29.60
2018-08-23T05:31:34.581Z,29.73
2018-08-23T05:34:02.935Z,28.57
2018-08-23T05:36:30.237Z,30.23
2018-08-23T05:38:57.427Z,31.93
2018-08-23T05:41:24.568Z,30.00
2018-08-23T05:44:10.744Z,29.67
2018-08-23T05:46:40.663Z,34.20
2018-08-23T05:49:07.776Z,43.33
2018-08-23T05:51:38.952Z,39.37
2018-08-23T05:54:06.136Z,38.10
2018-08-23T05:56:33.332Z,51.57
2018-08-23T05:59:06.304Z,58.33
2018-08-23T06:01:33.516Z,71.60
2018-08-23T06:04:00.649Z,79.47
2018-08-23T06:06:28.384Z,90.80
2018-08-23T06:08:59.361Z,99.87
2018-08-23T06:11:26.529Z,109.80
2018-08-23T06:13:53.633Z,108.67
2018-08-23T06:16:20.737Z,108.07
2018-08-23T06:18:54.691Z,143.03
2018-08-23T06:21:21.862Z,140.03
2018-08-23T06:23:51.972Z,127.27
2018-08-23T06:26:19.963Z,117.57
2018-08-23T06:28:47.160Z,117.93
2018-08-23T06:31:14.289Z,114.77
2018-08-23T06:33:47.274Z,118.43
2018-08-23T06:36:14.286Z,120.33
2018-08-23T06:38:46.025Z,125.37
2018-08-23T06:41:13.105Z,137.50
2018-08-23T06:43:40.262Z,125.67
2018-08-23T06:46:07.471Z,112.97
2018-08-23T06:48:34.541Z,105.47
2018-08-23T06:51:02.691Z,101.83
2018-08-23T06:53:39.392Z,98.93
2018-08-23T06:56:06.546Z,98.67
2018-08-23T06:58:33.810Z,99.97
2018-08-23T07:01:03.356Z,87.87
2018-08-23T07:03:30.575Z,86.37
2018-08-23T07:05:57.768Z,68.93
2018-08-23T07:08:24.910Z,63.13
2018-08-23T07:11:00.268Z,65.37
2018-08-23T07:13:27.416Z,53.83
2018-08-23T07:15:59.069Z,37.27
2018-08-23T07:18:26.549Z,40.80
2018-08-23T07:20:53.655Z,52.63
2018-08-23T07:23:30.300Z,43.37
2018-08-23T07:25:57.441Z,56.53
2018-08-23T07:28:24.592Z,50.10
2018-08-23T07:30:53.108Z,39.47
2018-08-23T07:33:20.269Z,39.63
2018-08-23T07:35:53.276Z,40.33
2018-08-23T07:38:20.419Z,40.60
2018-08-23T07:40:47.608Z,46.37
2018-08-23T07:43:14.784Z,44.27
2018-08-23T07:45:41.950Z,42.33
2018-08-23T07:48:09.128Z,41.90
2018-08-23T07:50:36.316Z,39.30
2018-08-23T07:53:03.486Z,34.03
2018-08-23T07:55:30.636Z,29.43
2018-08-23T07:57:57.758Z,34.30
2018-08-23T08:00:25.680Z,47.23
2018-08-23T08:02:52.950Z,26.00
2018-08-23T08:05:20.141Z,25.20
2018-08-23T08:07:47.490Z,20.33
2018-08-23T08:10:21.468Z,21.10
2018-08-23T08:12:48.616Z,18.17
2018-08-23T08:15:15.936Z,14.10
2018-08-23T08:17:42.949Z,13.77
2018-08-23T08:20:10.413Z,12.47
2018-08-23T08:22:37.627Z,12.90
2018-08-23T08:25:19.873Z,16.77
2018-08-23T08:27:48.148Z,10.90
2018-08-23T08:30:16.772Z,12.80
2018-08-23T08:32:44.312Z,13.20
2018-08-23T08:35:15.380Z,18.37
2018-08-23T08:37:42.896Z,14.23
2018-08-23T08:40:18.714Z,12.10
2018-08-23T08:42:45.868Z,10.53
2018-08-23T08:45:13.376Z,16.10
2018-08-23T08:47:41.971Z,10.50
2018-08-23T08:50:09.179Z,9.00
2018-08-23T08:52:36.313Z,9.73
2018-08-23T08:55:05.788Z,9.80
2018-08-23T08:57:32.922Z,9.07
2018-08-23T09:00:00.698Z,9.40
2018-08-23T09:02:30.081Z,10.77
2018-08-23T09:04:57.168Z,9.93
2018-08-23T09:07:27.536Z,8.43
2018-08-23T09:09:54.678Z,7.77
2018-08-23T09:12:21.861Z,9.20
2018-08-23T09:14:49.029Z,8.60
2018-08-23T09:17:33.281Z,9.43
2018-08-23T09:20:06.293Z,8.60
2018-08-23T09:22:36.360Z,10.87
2018-08-23T09:25:05.572Z,7.83
2018-08-23T09:27:32.697Z,8.70
2018-08-23T09:29:59.832Z,8.70
2018-08-23T09:32:28.149Z,8.70
2018-08-23T09:34:57.295Z,9.13
2018-08-23T09:37:24.521Z,12.17
2018-08-23T09:39:51.693Z,7.47
2018-08-23T09:42:18.839Z,7.60
2018-08-23T09:44:59.181Z,7.60
2018-08-23T09:47:26.478Z,7.00
2018-08-23T09:49:53.596Z,8.00
2018-08-23T09:52:25.046Z,7.47
2018-08-23T09:54:52.136Z,9.63
2018-08-23T09:57:19.266Z,7.60
2018-08-23T09:59:50.978Z,8.70
2018-08-23T10:02:23.896Z,8.60
2018-08-23T10:04:55.082Z,9.10
2018-08-23T10:07:28.928Z,8.57
2018-08-23T10:10:01.770Z,8.17
2018-08-23T10:12:34.753Z,7.97
2018-08-23T10:15:07.765Z,8.83
2018-08-23T10:17:40.531Z,9.30
2018-08-23T10:20:13.492Z,9.50
2018-08-23T10:22:45.548Z,8.07
2018-08-23T10:25:30.226Z,8.63
2018-08-23T10:27:58.080Z,8.63
2018-08-23T10:30:25.769Z,8.30
2018-08-23T10:32:53.085Z,8.30
2018-08-23T10:35:20.262Z,10.73
2018-08-23T10:37:47.401Z,8.63
2018-08-23T10:40:14.618Z,8.03
2018-08-23T10:42:41.755Z,8.47
2018-08-23T10:45:08.876Z,9.07
2018-08-23T10:47:41.745Z,8.30
2018-08-23T10:50:08.920Z,9.30
2018-08-23T10:52:36.133Z,7.93
2018-08-23T10:55:03.856Z,8.37
2018-08-23T10:57:31.133Z,8.33
2018-08-23T10:59:58.473Z,8.13
2018-08-23T11:02:25.680Z,9.87
2018-08-23T11:04:52.829Z,8.07
2018-08-23T11:07:24.546Z,7.57
2018-08-23T11:09:57.521Z,8.73
2018-08-23T11:12:30.513Z,10.40
2018-08-23T11:15:03.247Z,10.73
2018-08-23T11:17:36.025Z,36.37
2018-08-23T11:20:09.385Z,31.83
2018-08-23T11:22:36.569Z,34.30
2018-08-23T11:25:04.304Z,32.63
2018-08-23T11:27:31.580Z,25.83
2018-08-23T11:29:58.775Z,22.40
2018-08-23T11:32:25.955Z,27.97
2018-08-23T11:34:53.104Z,26.83
2018-08-23T11:37:20.307Z,23.63
2018-08-23T11:39:47.424Z,23.13
2018-08-23T11:42:14.614Z,16.93
2018-08-23T11:44:41.772Z,14.33
2018-08-23T11:47:09.446Z,10.57
2018-08-23T11:49:37.133Z,25.90
2018-08-23T11:52:04.317Z,25.77
2018-08-23T11:54:40.024Z,24.00
2018-08-23T11:57:07.200Z,25.83
2018-08-23T11:59:34.348Z,21.70
2018-08-23T12:02:01.568Z,20.97
2018-08-23T12:04:28.730Z,15.00
2018-08-23T12:06:56.027Z,15.50
2018-08-23T12:09:38.473Z,9.17
2018-08-23T12:12:05.633Z,8.50
2018-08-23T12:14:32.813Z,8.23
2018-08-23T12:17:01.058Z,6.30
2018-08-23T12:19:28.195Z,6.00
2018-08-23T12:21:55.365Z,5.97
2018-08-23T12:24:22.551Z,6.83
2018-08-23T12:26:49.698Z,6.60
2018-08-23T12:29:16.864Z,6.97
2018-08-23T12:31:44.075Z,7.13
2018-08-23T12:34:12.288Z,6.93
2018-08-23T12:36:45.551Z,9.13
2018-08-23T12:39:18.661Z,7.27
2018-08-23T12:41:52.236Z,7.60
2018-08-23T12:44:23.753Z,6.77
2018-08-23T12:46:56.162Z,7.40
2018-08-23T12:49:23.352Z,6.53
2018-08-23T12:51:50.432Z,7.47
2018-08-23T12:54:17.652Z,7.87
2018-08-23T12:56:45.000Z,6.80
2018-08-23T12:59:12.956Z,8.30
2018-08-23T13:01:40.160Z,7.40
2018-08-23T13:04:07.379Z,6.87
2018-08-23T13:06:34.669Z,6.47
2018-08-23T13:09:01.886Z,6.93
2018-08-23T13:11:29.133Z,7.77
2018-08-23T13:13:56.316Z,7.50
2018-08-23T13:16:23.444Z,6.97
2018-08-23T13:18:52.294Z,7.13
2018-08-23T13:21:19.505Z,6.63
2018-08-23T13:23:53.604Z,7.90
2018-08-23T13:26:20.820Z,6.27
2018-08-23T13:28:48.036Z,6.30
2018-08-23T13:33:49.192Z,6.57
2018-08-23T13:36:16.558Z,6.80
2018-08-23T13:38:43.680Z,6.73
2018-08-23T13:41:10.836Z,6.53
2018-08-23T13:43:38.246Z,7.30
2018-08-23T13:46:05.472Z,6.23
2018-08-23T13:48:33.273Z,8.10
2018-08-23T13:51:00.659Z,6.53
2018-08-23T13:53:27.795Z,7.57
2018-08-23T13:55:54.970Z,10.33
2018-08-23T13:58:22.163Z,10.37
2018-08-23T14:00:49.366Z,11.10
2018-08-23T14:03:16.529Z,8.77
2018-08-23T14:05:43.729Z,10.00
2018-08-23T14:08:10.850Z,8.93
2018-08-23T14:10:38.000Z,8.90
2018-08-23T14:13:05.109Z,9.53
2018-08-23T14:15:38.012Z,8.13
2018-08-23T14:18:05.209Z,7.77
2018-08-23T14:20:32.419Z,7.40
2018-08-23T14:22:59.570Z,7.10
2018-08-23T14:25:26.727Z,7.30
2018-08-23T14:27:54.086Z,7.33
2018-08-23T14:30:21.513Z,10.30
2018-08-23T14:32:55.498Z,9.30
2018-08-23T14:35:22.600Z,9.00
2018-08-23T14:37:49.754Z,7.40
2018-08-23T14:40:16.973Z,7.37
2018-08-23T14:42:44.062Z,6.40
2018-08-23T14:45:11.174Z,7.00
2018-08-23T14:47:43.916Z,6.73
2018-08-23T14:50:11.165Z,6.60
2018-08-23T14:52:38.381Z,6.47
2018-08-23T14:55:05.614Z,6.10
2018-08-23T14:57:36.899Z,7.30
2018-08-23T15:00:04.621Z,6.03
2018-08-23T15:02:31.748Z,5.80
2018-08-23T15:04:58.894Z,5.70
2018-08-23T15:07:26.029Z,5.40
2018-08-23T15:09:53.166Z,9.30
2018-08-23T15:12:20.310Z,6.07
2018-08-23T15:14:47.470Z,6.40
2018-08-23T15:17:14.764Z,7.40
2018-08-23T15:19:41.926Z,9.23
2018-08-23T15:22:09.486Z,11.30
2018-08-23T15:24:36.686Z,14.00
2018-08-23T15:27:04.376Z,12.63
2018-08-23T15:29:31.380Z,11.13
2018-08-23T15:31:58.521Z,10.47
2018-08-23T15:34:25.655Z,8.63
2018-08-23T15:36:52.802Z,7.90
2018-08-23T15:39:20.051Z,9.57
2018-08-23T15:41:47.237Z,8.10
2018-08-23T15:44:14.405Z,5.60
2018-08-23T15:46:45.825Z,4.97
2018-08-23T15:49:13.368Z,4.30
2018-08-23T15:51:41.232Z,5.83
2018-08-23T15:54:08.824Z,3.67
2018-08-23T15:56:36.387Z,5.90
2018-08-23T15:59:03.629Z,5.77
2018-08-23T16:01:31.081Z,6.00
2018-08-23T16:03:58.268Z,7.47
2018-08-23T16:06:25.777Z,4.83
2018-08-23T16:08:53.013Z,7.00
2018-08-23T16:24:19.932Z,8.00
2018-08-23T16:27:04.064Z,4.40
2018-08-23T16:29:31.496Z,5.70
2018-08-23T16:31:58.769Z,4.73
2018-08-23T16:34:26.481Z,8.03
2018-08-23T16:36:53.706Z,5.33
2018-08-23T16:39:21.157Z,5.40
2018-08-23T16:41:48.312Z,5.10
2018-08-23T16:44:15.474Z,4.47
2018-08-23T16:46:42.746Z,4.00
2018-08-23T16:49:09.961Z,7.73
2018-08-23T16:51:37.144Z,31.27
2018-08-23T16:54:04.360Z,21.00
2018-08-23T16:56:31.609Z,8.33
2018-08-23T16:58:58.831Z,8.57
2018-08-23T17:01:26.017Z,10.77
2018-08-23T17:03:54.454Z,10.80
2018-08-23T17:06:22.793Z,8.50
2018-08-23T17:08:50.059Z,9.07
2018-08-23T17:11:17.247Z,9.73
2018-08-23T17:13:44.424Z,10.53
2018-08-23T17:16:17.438Z,8.17
2018-08-23T17:18:44.641Z,8.47
2018-08-23T17:21:11.801Z,6.90
2018-08-23T17:23:39.005Z,8.20
2018-08-23T17:26:06.167Z,6.90
2018-08-23T17:28:33.316Z,6.00
2018-08-23T17:31:01.028Z,4.60
2018-08-23T17:33:28.245Z,4.63
2018-08-23T17:35:55.420Z,5.40
2018-08-23T17:38:22.640Z,8.50
2018-08-23T17:40:49.741Z,5.90
2018-08-23T17:43:16.903Z,5.70
2018-08-23T17:45:44.441Z,4.80
2018-08-23T17:48:11.601Z,4.73
2018-08-23T17:50:38.766Z,5.40
2018-08-23T17:53:06.013Z,5.57
2018-08-23T17:55:33.389Z,5.17
2018-08-23T17:58:00.554Z,6.47
2018-08-23T18:00:27.797Z,6.17
2018-08-23T18:02:55.033Z,5.87
2018-08-23T18:05:22.345Z,10.00
2018-08-23T18:07:49.554Z,8.33
2018-08-23T18:10:16.757Z,5.23
2018-08-23T18:12:43.956Z,6.63
2018-08-23T18:15:11.110Z,7.77
2018-08-23T18:17:38.978Z,7.43
2018-08-23T18:20:06.434Z,7.83
2018-08-23T18:22:33.749Z,8.50
2018-08-23T18:25:01.014Z,7.30
2018-08-23T18:27:28.171Z,8.00
2018-08-23T18:29:55.385Z,7.90
2018-08-23T18:32:22.628Z,8.90
2018-08-23T18:34:49.908Z,6.83
2018-08-23T18:37:17.096Z,16.90
2018-08-23T18:39:44.329Z,9.50
2018-08-23T18:42:11.576Z,10.30
2018-08-23T18:44:38.924Z,12.43
2018-08-23T18:47:06.193Z,8.80
2018-08-23T18:49:33.415Z,10.30
2018-08-23T18:52:00.666Z,10.30
2018-08-23T18:54:27.940Z,14.63
2018-08-23T18:57:03.140Z,10.37
2018-08-23T18:59:33.550Z,14.33
2018-08-23T19:02:01.169Z,15.00
2018-08-23T19:04:28.310Z,13.20
2018-08-23T19:06:55.483Z,20.70
2018-08-23T19:09:22.821Z,25.07
2018-08-23T19:11:49.988Z,17.47
2018-08-23T19:14:17.204Z,20.23
2018-08-23T19:16:50.108Z,20.43
2018-08-23T19:19:17.525Z,20.80
2018-08-23T19:21:44.756Z,20.07
2018-08-23T19:24:14.077Z,15.17
2018-08-23T19:26:41.320Z,15.30
2018-08-23T19:29:08.558Z,13.37
2018-08-23T19:31:43.162Z,17.87
2018-08-23T19:34:10.321Z,17.37
2018-08-23T19:36:37.537Z,18.37
2018-08-23T19:39:08.380Z,20.93
2018-08-23T19:41:35.768Z,20.70
2018-08-23T19:44:03.037Z,26.63
2018-08-23T19:46:35.923Z,24.30
2018-08-23T19:49:08.865Z,16.93
2018-08-23T19:51:36.136Z,18.43
2018-08-23T19:54:03.326Z,16.83
2018-08-23T19:56:30.569Z,21.27
2018-08-23T19:58:57.865Z,22.77
2018-08-23T20:01:25.086Z,22.00
2018-08-23T20:03:52.254Z,17.80
2018-08-23T20:06:20.225Z,18.80
2018-08-23T20:08:47.451Z,16.50
2018-08-23T20:11:14.637Z,12.57
2018-08-23T20:13:41.805Z,17.50
2018-08-23T20:16:09.026Z,18.13
2018-08-23T20:18:36.275Z,16.50
2018-08-23T20:21:03.498Z,14.07
2018-08-23T20:23:30.663Z,13.73
2018-08-23T20:25:57.897Z,13.43
2018-08-23T20:28:25.173Z,13.57
2018-08-23T20:30:52.428Z,16.40
2018-08-23T20:33:19.723Z,17.43
2018-08-23T20:35:47.020Z,19.87
2018-08-23T20:38:15.099Z,16.23
2018-08-23T20:40:42.323Z,11.40
2018-08-23T20:43:09.628Z,11.83
2018-08-23T20:45:36.881Z,17.97
2018-08-23T20:48:04.056Z,16.73
2018-08-23T20:50:31.339Z,11.90
2018-08-23T20:52:58.532Z,15.13
2018-08-23T20:55:25.693Z,12.60
2018-08-23T20:57:52.920Z,12.03
2018-08-23T21:00:20.170Z,16.00
2018-08-23T21:02:47.396Z,15.37
2018-08-23T21:05:15.248Z,13.10
2018-08-23T21:07:42.545Z,15.90
2018-08-23T21:10:09.799Z,11.97
2018-08-23T21:12:37.082Z,10.33
2018-08-23T21:15:04.588Z,14.77
2018-08-23T21:17:31.867Z,14.43
2018-08-23T21:19:58.996Z,11.43
2018-08-23T21:22:26.172Z,13.63
2018-08-23T21:24:53.341Z,13.73
2018-08-23T21:27:20.649Z,13.37
2018-08-23T21:29:47.895Z,11.83
2018-08-23T21:32:15.120Z,10.80
2018-08-23T21:34:51.960Z,11.27
2018-08-23T21:37:20.522Z,11.37
2018-08-23T21:39:48.839Z,11.13
2018-08-23T21:42:16.396Z,8.97
2018-08-23T21:44:43.764Z,8.70
2018-08-23T21:47:11.035Z,9.60
2018-08-23T21:49:38.174Z,8.70
2018-08-23T21:52:05.476Z,9.13
2018-08-23T21:54:32.945Z,8.67
2018-08-23T21:57:00.162Z,10.50
2018-08-23T21:59:27.421Z,9.83
2018-08-23T22:02:00.335Z,11.70
2018-08-23T22:04:27.560Z,9.23
2018-08-23T22:06:54.792Z,12.00
2018-08-23T22:09:22.349Z,8.63
2018-08-23T22:11:49.608Z,9.07
2018-08-23T22:14:16.980Z,8.47
2018-08-23T22:16:44.166Z,9.20
2018-08-23T22:19:11.370Z,8.47
2018-08-23T22:21:38.736Z,9.00
2018-08-23T22:24:05.954Z,8.57
2018-08-23T22:26:33.626Z,7.20
2018-08-23T22:29:00.924Z,10.00
2018-08-23T22:31:28.160Z,7.80
2018-08-23T22:33:55.347Z,9.63
2018-08-23T22:36:22.515Z,8.00
2018-08-23T22:38:49.692Z,8.93
2018-08-23T22:41:17.005Z,7.67
2018-08-23T22:43:44.206Z,7.37
2018-08-23T22:46:11.417Z,7.37
2018-08-23T22:48:38.638Z,8.90
2018-08-23T22:51:05.823Z,8.60
2018-08-23T22:53:32.998Z,7.60
2018-08-23T22:56:00.320Z,6.80
2018-08-23T22:58:27.790Z,10.57
2018-08-23T23:00:55.381Z,8.60
2018-08-23T23:03:28.396Z,9.07
2018-08-23T23:05:55.570Z,8.33
2018-08-23T23:08:22.865Z,11.47
2018-08-23T23:10:50.017Z,8.80
2018-08-23T23:13:17.233Z,10.03
2018-08-23T23:15:44.432Z,10.33
2018-08-23T23:18:11.584Z,8.87
2018-08-23T23:20:38.722Z,10.10
2018-08-23T23:23:05.978Z,9.87
2018-08-23T23:25:33.176Z,10.70
2018-08-23T23:28:00.382Z,9.90
2018-08-23T23:30:27.589Z,12.13
2018-08-23T23:32:54.772Z,14.23
2018-08-23T23:35:21.981Z,11.87
2018-08-23T23:37:49.181Z,10.17
2018-08-23T23:40:16.392Z,12.43
2018-08-23T23:42:50.704Z,12.80
2018-08-23T23:45:17.828Z,12.77
2018-08-23T23:47:45.175Z,10.63
2018-08-23T23:50:12.497Z,10.60
2018-08-23T23:52:39.620Z,11.27
2018-08-23T23:55:06.799Z,12.57
2018-08-23T23:57:33.950Z,11.80
